sensor_id;sensor_type;location;lat;lon;timestamp;temperature;humidity
68511;SHT31;55512;50.102;19.958;2024-02-04T00:00:51;8.31;83.83
68511;SHT31;55512;50.102;19.958;2024-02-04T00:07:40;8.35;83.50
68511;SHT31;55512;50.102;19.958;2024-02-04T00:11:24;8.35;83.51
68511;SHT31;55512;50.102;19.958;2024-02-04T00:20:15;8.29;83.90
68511;SHT31;55512;50.102;19.958;2024-02-04T00:23:29;8.27;83.87
68511;SHT31;55512;50.102;19.958;2024-02-04T00:34:08;8.26;83.86
68511;SHT31;55512;50.102;19.958;2024-02-04T00:43:31;8.24;83.70
68511;SHT31;55512;50.102;19.958;2024-02-04T00:46:09;8.25;83.65
68511;SHT31;55512;50.102;19.958;2024-02-04T00:48:38;8.25;83.60
68511;SHT31;55512;50.102;19.958;2024-02-04T00:51:06;8.26;83.64
68511;SHT31;55512;50.102;19.958;2024-02-04T00:53:32;8.24;83.73
68511;SHT31;55512;50.102;19.958;2024-02-04T00:59:53;8.18;83.96
68511;SHT31;55512;50.102;19.958;2024-02-04T01:13:38;8.07;84.71
68511;SHT31;55512;50.102;19.958;2024-02-04T01:23:34;8.00;85.41
68511;SHT31;55512;50.102;19.958;2024-02-04T01:26:03;7.97;85.68
68511;SHT31;55512;50.102;19.958;2024-02-04T01:31:07;7.93;85.97
68511;SHT31;55512;50.102;19.958;2024-02-04T01:33:48;7.88;86.21
68511;SHT31;55512;50.102;19.958;2024-02-04T01:36:21;7.82;86.74
68511;SHT31;55512;50.102;19.958;2024-02-04T01:39:19;7.78;87.44
68511;SHT31;55512;50.102;19.958;2024-02-04T01:43:12;7.72;88.18
68511;SHT31;55512;50.102;19.958;2024-02-04T01:56:01;7.97;87.60
68511;SHT31;55512;50.102;19.958;2024-02-04T01:58:34;7.98;87.60
68511;SHT31;55512;50.102;19.958;2024-02-04T02:01:09;7.97;87.70
68511;SHT31;55512;50.102;19.958;2024-02-04T02:03:38;7.97;87.75
68511;SHT31;55512;50.102;19.958;2024-02-04T02:06:05;7.95;87.86
68511;SHT31;55512;50.102;19.958;2024-02-04T02:08:38;7.91;88.28
68511;SHT31;55512;50.102;19.958;2024-02-04T02:11:32;7.90;88.49
68511;SHT31;55512;50.102;19.958;2024-02-04T02:14:13;7.86;88.60
68511;SHT31;55512;50.102;19.958;2024-02-04T02:16:56;7.87;88.66
68511;SHT31;55512;50.102;19.958;2024-02-04T02:19:31;7.88;88.70
68511;SHT31;55512;50.102;19.958;2024-02-04T02:25:38;7.86;88.63
68511;SHT31;55512;50.102;19.958;2024-02-04T02:28:13;7.84;88.68
68511;SHT31;55512;50.102;19.958;2024-02-04T02:30:59;7.80;89.08
68511;SHT31;55512;50.102;19.958;2024-02-04T02:33:58;7.77;89.35
68511;SHT31;55512;50.102;19.958;2024-02-04T02:40:59;7.72;89.94
68511;SHT31;55512;50.102;19.958;2024-02-04T02:54:44;7.73;90.10
68511;SHT31;55512;50.102;19.958;2024-02-04T03:08:45;7.67;89.91
68511;SHT31;55512;50.102;19.958;2024-02-04T03:11:36;7.62;89.73
68511;SHT31;55512;50.102;19.958;2024-02-04T03:14:16;7.60;89.70
68511;SHT31;55512;50.102;19.958;2024-02-04T03:16:43;7.56;89.70
68511;SHT31;55512;50.102;19.958;2024-02-04T03:21:51;7.51;89.70
68511;SHT31;55512;50.102;19.958;2024-02-04T03:24:17;7.48;89.70
68511;SHT31;55512;50.102;19.958;2024-02-04T03:26:52;7.47;89.67
68511;SHT31;55512;50.102;19.958;2024-02-04T03:29:21;7.43;89.60
68511;SHT31;55512;50.102;19.958;2024-02-04T03:31:46;7.43;89.60
68511;SHT31;55512;50.102;19.958;2024-02-04T03:34:15;7.41;89.60
68511;SHT31;55512;50.102;19.958;2024-02-04T03:40:07;7.37;89.58
68511;SHT31;55512;50.102;19.958;2024-02-04T03:51:14;7.29;89.39
68511;SHT31;55512;50.102;19.958;2024-02-04T03:54:46;7.27;89.23
68511;SHT31;55512;50.102;19.958;2024-02-04T03:58:15;7.27;89.23
68511;SHT31;55512;50.102;19.958;2024-02-04T04:04:58;7.27;89.13
68511;SHT31;55512;50.102;19.958;2024-02-04T04:14:44;7.22;88.67
68511;SHT31;55512;50.102;19.958;2024-02-04T04:20:49;7.26;88.13
68511;SHT31;55512;50.102;19.958;2024-02-04T04:27:28;7.26;87.85
68511;SHT31;55512;50.102;19.958;2024-02-04T04:30:40;7.30;87.64
68511;SHT31;55512;50.102;19.958;2024-02-04T04:40:23;7.40;86.62
68511;SHT31;55512;50.102;19.958;2024-02-04T04:44:13;7.41;85.56
68511;SHT31;55512;50.102;19.958;2024-02-04T04:47:40;7.43;85.40
68511;SHT31;55512;50.102;19.958;2024-02-04T04:54:25;7.38;84.39
68511;SHT31;55512;50.102;19.958;2024-02-04T04:57:45;7.38;84.20
68511;SHT31;55512;50.102;19.958;2024-02-04T05:10:29;7.49;83.99
68511;SHT31;55512;50.102;19.958;2024-02-04T05:17:24;7.52;83.86
68511;SHT31;55512;50.102;19.958;2024-02-04T05:34:59;7.18;84.29
68511;SHT31;55512;50.102;19.958;2024-02-04T05:38:16;7.12;84.46
68511;SHT31;55512;50.102;19.958;2024-02-04T05:41:40;7.11;84.54
68511;SHT31;55512;50.102;19.958;2024-02-04T05:45:17;7.12;84.40
68511;SHT31;55512;50.102;19.958;2024-02-04T05:52:04;7.09;84.20
68511;SHT31;55512;50.102;19.958;2024-02-04T05:55:36;7.16;83.85
68511;SHT31;55512;50.102;19.958;2024-02-04T06:16:08;6.36;84.67
68511;SHT31;55512;50.102;19.958;2024-02-04T06:20:05;6.36;84.48
68511;SHT31;55512;50.102;19.958;2024-02-04T06:26:56;6.45;84.84
68511;SHT31;55512;50.102;19.958;2024-02-04T06:30:18;6.58;84.59
68511;SHT31;55512;50.102;19.958;2024-02-04T06:42:58;6.92;85.89
68511;SHT31;55512;50.102;19.958;2024-02-04T06:52:59;6.89;85.87
68511;SHT31;55512;50.102;19.958;2024-02-04T06:57:10;6.88;85.83
68511;SHT31;55512;50.102;19.958;2024-02-04T07:03:10;6.81;84.51
68511;SHT31;55512;50.102;19.958;2024-02-04T07:07:11;6.82;84.13
68511;SHT31;55512;50.102;19.958;2024-02-04T07:09:41;6.84;83.68
68511;SHT31;55512;50.102;19.958;2024-02-04T07:15:53;6.92;83.61
68511;SHT31;55512;50.102;19.958;2024-02-04T07:18:12;6.98;83.43
68511;SHT31;55512;50.102;19.958;2024-02-04T07:21:11;7.03;83.78
68511;SHT31;55512;50.102;19.958;2024-02-04T07:27:11;7.09;84.37
68511;SHT31;55512;50.102;19.958;2024-02-04T07:48:18;7.54;77.63
68511;SHT31;55512;50.102;19.958;2024-02-04T07:51:33;7.60;76.89
68511;SHT31;55512;50.102;19.958;2024-02-04T08:04:02;7.82;75.35
68511;SHT31;55512;50.102;19.958;2024-02-04T08:06:33;7.86;74.51
68511;SHT31;55512;50.102;19.958;2024-02-04T08:09:24;7.95;73.88
68511;SHT31;55512;50.102;19.958;2024-02-04T08:17:57;8.10;72.61
68511;SHT31;55512;50.102;19.958;2024-02-04T08:21:03;8.11;71.49
68511;SHT31;55512;50.102;19.958;2024-02-04T08:24:01;8.08;70.13
68511;SHT31;55512;50.102;19.958;2024-02-04T08:29:42;8.10;70.27
68511;SHT31;55512;50.102;19.958;2024-02-04T08:32:13;8.11;70.07
68511;SHT31;55512;50.102;19.958;2024-02-04T08:34:44;8.14;70.04
68511;SHT31;55512;50.102;19.958;2024-02-04T08:37:33;8.18;69.67
68511;SHT31;55512;50.102;19.958;2024-02-04T08:42:59;8.22;68.26
68511;SHT31;55512;50.102;19.958;2024-02-04T08:46:41;8.25;68.90
68511;SHT31;55512;50.102;19.958;2024-02-04T08:49:39;8.27;68.76
68511;SHT31;55512;50.102;19.958;2024-02-04T08:52:45;8.26;67.72
68511;SHT31;55512;50.102;19.958;2024-02-04T08:55:18;8.33;68.53
68511;SHT31;55512;50.102;19.958;2024-02-04T08:58:27;8.39;68.42
68511;SHT31;55512;50.102;19.958;2024-02-04T09:01:22;8.49;68.22
68511;SHT31;55512;50.102;19.958;2024-02-04T09:07:12;8.56;67.67
68511;SHT31;55512;50.102;19.958;2024-02-04T09:09:53;8.57;67.62
68511;SHT31;55512;50.102;19.958;2024-02-04T09:12:59;8.61;68.11
68511;SHT31;55512;50.102;19.958;2024-02-04T09:18:51;8.54;67.03
68511;SHT31;55512;50.102;19.958;2024-02-04T09:21:17;8.51;67.04
68511;SHT31;55512;50.102;19.958;2024-02-04T09:27:52;8.55;67.83
68511;SHT31;55512;50.102;19.958;2024-02-04T09:30:41;8.56;68.32
68511;SHT31;55512;50.102;19.958;2024-02-04T09:33:59;8.60;68.67
68511;SHT31;55512;50.102;19.958;2024-02-04T09:37:14;8.66;68.05
68511;SHT31;55512;50.102;19.958;2024-02-04T09:39:40;8.74;68.25
68511;SHT31;55512;50.102;19.958;2024-02-04T09:42:06;8.84;68.37
68511;SHT31;55512;50.102;19.958;2024-02-04T09:44:32;9.00;68.16
68511;SHT31;55512;50.102;19.958;2024-02-04T09:47:09;9.18;68.19
68511;SHT31;55512;50.102;19.958;2024-02-04T09:49:40;9.32;67.68
68511;SHT31;55512;50.102;19.958;2024-02-04T09:52:29;9.35;66.93
68511;SHT31;55512;50.102;19.958;2024-02-04T09:55:31;9.29;65.47
68511;SHT31;55512;50.102;19.958;2024-02-04T09:58:00;9.35;66.41
68511;SHT31;55512;50.102;19.958;2024-02-04T10:00:38;9.28;64.93
68511;SHT31;55512;50.102;19.958;2024-02-04T10:03:27;9.24;65.02
68511;SHT31;55512;50.102;19.958;2024-02-04T10:06:36;9.30;65.44
68511;SHT31;55512;50.102;19.958;2024-02-04T10:09:07;9.35;65.33
68511;SHT31;55512;50.102;19.958;2024-02-04T10:12:16;9.47;65.77
68511;SHT31;55512;50.102;19.958;2024-02-04T10:19:00;9.52;65.64
68511;SHT31;55512;50.102;19.958;2024-02-04T10:21:32;9.49;64.71
68511;SHT31;55512;50.102;19.958;2024-02-04T10:24:18;9.51;64.78
68511;SHT31;55512;50.102;19.958;2024-02-04T10:27:27;9.53;65.12
68511;SHT31;55512;50.102;19.958;2024-02-04T10:30:12;9.48;64.91
68511;SHT31;55512;50.102;19.958;2024-02-04T10:33:21;9.45;65.87
68511;SHT31;55512;50.102;19.958;2024-02-04T10:36:09;9.44;66.82
68511;SHT31;55512;50.102;19.958;2024-02-04T10:39:26;9.44;66.85
68511;SHT31;55512;50.102;19.958;2024-02-04T10:45:53;9.39;65.57
68511;SHT31;55512;50.102;19.958;2024-02-04T10:48:51;9.37;65.50
68511;SHT31;55512;50.102;19.958;2024-02-04T10:51:33;9.41;65.89
68511;SHT31;55512;50.102;19.958;2024-02-04T10:54:44;9.48;65.22
68511;SHT31;55512;50.102;19.958;2024-02-04T11:01:54;9.67;64.71
68511;SHT31;55512;50.102;19.958;2024-02-04T11:04:05;9.78;63.92
68511;SHT31;55512;50.102;19.958;2024-02-04T11:06:33;9.81;63.05
68511;SHT31;55512;50.102;19.958;2024-02-04T11:09:02;9.96;63.66
68511;SHT31;55512;50.102;19.958;2024-02-04T11:14:12;10.36;63.98
68511;SHT31;55512;50.102;19.958;2024-02-04T11:20:53;10.40;61.42
68511;SHT31;55512;50.102;19.958;2024-02-04T11:27:16;10.52;59.95
68511;SHT31;55512;50.102;19.958;2024-02-04T11:30:12;10.85;58.83
68511;SHT31;55512;50.102;19.958;2024-02-04T11:33:10;11.02;57.56
68511;SHT31;55512;50.102;19.958;2024-02-04T11:35:37;11.02;57.64
68511;SHT31;55512;50.102;19.958;2024-02-04T11:38:42;10.95;56.91
68511;SHT31;55512;50.102;19.958;2024-02-04T11:41:21;11.08;58.02
68511;SHT31;55512;50.102;19.958;2024-02-04T11:48:00;11.18;57.65
68511;SHT31;55512;50.102;19.958;2024-02-04T11:50:42;11.12;57.83
68511;SHT31;55512;50.102;19.958;2024-02-04T11:59:50;11.25;57.26
68511;SHT31;55512;50.102;19.958;2024-02-04T12:02:32;11.29;57.57
68511;SHT31;55512;50.102;19.958;2024-02-04T12:09:06;11.17;57.12
68511;SHT31;55512;50.102;19.958;2024-02-04T12:12:04;11.20;57.68
68511;SHT31;55512;50.102;19.958;2024-02-04T12:14:29;11.27;58.27
68511;SHT31;55512;50.102;19.958;2024-02-04T12:17:09;11.28;58.51
68511;SHT31;55512;50.102;19.958;2024-02-04T12:19:36;11.20;58.85
68511;SHT31;55512;50.102;19.958;2024-02-04T12:22:41;11.09;59.47
68511;SHT31;55512;50.102;19.958;2024-02-04T12:26:22;10.80;60.24
68511;SHT31;55512;50.102;19.958;2024-02-04T12:28:48;10.46;63.41
68511;SHT31;55512;50.102;19.958;2024-02-04T12:32:06;10.18;64.06
68511;SHT31;55512;50.102;19.958;2024-02-04T12:34:34;9.96;64.25
68511;SHT31;55512;50.102;19.958;2024-02-04T12:37:01;9.85;64.81
68511;SHT31;55512;50.102;19.958;2024-02-04T12:39:27;9.77;65.27
68511;SHT31;55512;50.102;19.958;2024-02-04T12:42:00;9.73;65.77
68511;SHT31;55512;50.102;19.958;2024-02-04T12:44:32;9.60;67.99
68511;SHT31;55512;50.102;19.958;2024-02-04T12:47:04;9.32;71.19
68511;SHT31;55512;50.102;19.958;2024-02-04T13:02:56;8.29;80.45
68511;SHT31;55512;50.102;19.958;2024-02-04T13:05:43;8.08;82.77
68511;SHT31;55512;50.102;19.958;2024-02-04T13:08:10;7.98;83.93
68511;SHT31;55512;50.102;19.958;2024-02-04T13:13:30;7.86;84.99
68511;SHT31;55512;50.102;19.958;2024-02-04T13:15:56;7.86;85.65
68511;SHT31;55512;50.102;19.958;2024-02-04T13:18:53;7.86;86.08
68511;SHT31;55512;50.102;19.958;2024-02-04T13:21:22;7.82;86.19
68511;SHT31;55512;50.102;19.958;2024-02-04T13:23:51;7.81;86.28
68511;SHT31;55512;50.102;19.958;2024-02-04T13:26:40;7.87;86.38
68511;SHT31;55512;50.102;19.958;2024-02-04T13:31:45;7.92;86.50
68511;SHT31;55512;50.102;19.958;2024-02-04T13:34:11;8.02;86.42
68511;SHT31;55512;50.102;19.958;2024-02-04T13:36:36;8.04;86.21
68511;SHT31;55512;50.102;19.958;2024-02-04T13:39:17;8.10;86.07
68511;SHT31;55512;50.102;19.958;2024-02-04T13:41:51;8.09;85.98
68511;SHT31;55512;50.102;19.958;2024-02-04T13:44:18;8.10;85.97
68511;SHT31;55512;50.102;19.958;2024-02-04T13:46:46;8.12;85.90
68511;SHT31;55512;50.102;19.958;2024-02-04T13:49:17;8.14;85.90
68511;SHT31;55512;50.102;19.958;2024-02-04T13:51:46;8.19;85.95
68511;SHT31;55512;50.102;19.958;2024-02-04T13:54:15;8.20;85.96
68511;SHT31;55512;50.102;19.958;2024-02-04T13:56:41;8.23;85.78
68511;SHT31;55512;50.102;19.958;2024-02-04T13:59:21;8.21;85.86
68511;SHT31;55512;50.102;19.958;2024-02-04T14:01:58;8.19;85.78
68511;SHT31;55512;50.102;19.958;2024-02-04T14:04:35;8.14;85.89
68511;SHT31;55512;50.102;19.958;2024-02-04T14:07:11;8.14;85.96
68511;SHT31;55512;50.102;19.958;2024-02-04T14:09:42;8.15;86.22
68511;SHT31;55512;50.102;19.958;2024-02-04T14:12:35;8.13;86.24
68511;SHT31;55512;50.102;19.958;2024-02-04T14:15:32;8.19;86.37
68511;SHT31;55512;50.102;19.958;2024-02-04T14:20:42;8.35;86.33
68511;SHT31;55512;50.102;19.958;2024-02-04T14:27:05;8.50;85.89
68511;SHT31;55512;50.102;19.958;2024-02-04T14:32:56;8.56;85.25
68511;SHT31;55512;50.102;19.958;2024-02-04T14:36:02;8.52;85.02
68511;SHT31;55512;50.102;19.958;2024-02-04T14:38:42;8.47;84.89
68511;SHT31;55512;50.102;19.958;2024-02-04T14:41:08;8.44;84.86
68511;SHT31;55512;50.102;19.958;2024-02-04T14:43:35;8.41;84.94
68511;SHT31;55512;50.102;19.958;2024-02-04T14:46:49;8.41;84.84
68511;SHT31;55512;50.102;19.958;2024-02-04T14:49:15;8.42;84.87
68511;SHT31;55512;50.102;19.958;2024-02-04T14:52:07;8.36;84.63
68511;SHT31;55512;50.102;19.958;2024-02-04T14:54:49;8.35;84.55
68511;SHT31;55512;50.102;19.958;2024-02-04T14:57:18;8.35;84.61
68511;SHT31;55512;50.102;19.958;2024-02-04T14:59:44;8.34;84.49
68511;SHT31;55512;50.102;19.958;2024-02-04T15:02:16;8.35;84.46
68511;SHT31;55512;50.102;19.958;2024-02-04T15:04:41;8.37;84.43
68511;SHT31;55512;50.102;19.958;2024-02-04T15:07:15;8.37;84.31
68511;SHT31;55512;50.102;19.958;2024-02-04T15:13:21;8.40;84.17
68511;SHT31;55512;50.102;19.958;2024-02-04T15:16:01;8.39;84.09
68511;SHT31;55512;50.102;19.958;2024-02-04T15:18:29;8.39;84.01
68511;SHT31;55512;50.102;19.958;2024-02-04T15:21:01;8.26;84.11
68511;SHT31;55512;50.102;19.958;2024-02-04T15:23:28;8.20;84.37
68511;SHT31;55512;50.102;19.958;2024-02-04T15:26:03;8.13;84.48
68511;SHT31;55512;50.102;19.958;2024-02-04T15:28:36;7.93;85.17
68511;SHT31;55512;50.102;19.958;2024-02-04T15:31:13;7.89;85.37
68511;SHT31;55512;50.102;19.958;2024-02-04T15:34:44;7.86;85.40
68511;SHT31;55512;50.102;19.958;2024-02-04T15:37:00;7.87;85.36
68511;SHT31;55512;50.102;19.958;2024-02-04T15:39:43;7.87;85.12
68511;SHT31;55512;50.102;19.958;2024-02-04T15:42:39;7.92;85.10
68511;SHT31;55512;50.102;19.958;2024-02-04T15:45:09;7.91;85.14
68511;SHT31;55512;50.102;19.958;2024-02-04T15:47:36;7.90;85.20
68511;SHT31;55512;50.102;19.958;2024-02-04T15:50:17;7.89;85.17
68511;SHT31;55512;50.102;19.958;2024-02-04T15:52:47;7.90;85.10
68511;SHT31;55512;50.102;19.958;2024-02-04T15:55:14;7.95;85.10
68511;SHT31;55512;50.102;19.958;2024-02-04T15:57:44;7.97;84.99
68511;SHT31;55512;50.102;19.958;2024-02-04T16:00:18;7.96;84.96
68511;SHT31;55512;50.102;19.958;2024-02-04T16:02:51;7.98;84.88
68511;SHT31;55512;50.102;19.958;2024-02-04T16:05:22;7.97;84.90
68511;SHT31;55512;50.102;19.958;2024-02-04T16:07:57;7.95;84.95
68511;SHT31;55512;50.102;19.958;2024-02-04T16:10:23;8.00;84.55
68511;SHT31;55512;50.102;19.958;2024-02-04T16:12:58;8.00;84.22
68511;SHT31;55512;50.102;19.958;2024-02-04T16:15:35;8.03;84.11
68511;SHT31;55512;50.102;19.958;2024-02-04T16:18:18;8.05;83.86
68511;SHT31;55512;50.102;19.958;2024-02-04T16:21:00;8.30;82.57
68511;SHT31;55512;50.102;19.958;2024-02-04T16:23:35;8.38;82.00
68511;SHT31;55512;50.102;19.958;2024-02-04T16:26:27;8.19;82.70
68511;SHT31;55512;50.102;19.958;2024-02-04T16:28:58;8.15;83.18
68511;SHT31;55512;50.102;19.958;2024-02-04T16:31:24;8.10;83.75
68511;SHT31;55512;50.102;19.958;2024-02-04T16:34:18;8.06;84.00
68511;SHT31;55512;50.102;19.958;2024-02-04T16:36:50;8.02;84.17
68511;SHT31;55512;50.102;19.958;2024-02-04T16:39:16;8.19;83.58
68511;SHT31;55512;50.102;19.958;2024-02-04T16:41:45;8.33;82.83
68511;SHT31;55512;50.102;19.958;2024-02-04T16:44:12;8.39;82.59
68511;SHT31;55512;50.102;19.958;2024-02-04T16:46:52;8.38;82.46
68511;SHT31;55512;50.102;19.958;2024-02-04T16:50:16;8.40;82.52
68511;SHT31;55512;50.102;19.958;2024-02-04T16:52:52;8.37;82.74
68511;SHT31;55512;50.102;19.958;2024-02-04T16:55:21;8.38;82.81
68511;SHT31;55512;50.102;19.958;2024-02-04T16:57:46;8.38;82.94
68511;SHT31;55512;50.102;19.958;2024-02-04T17:00:32;8.36;83.16
68511;SHT31;55512;50.102;19.958;2024-02-04T17:03:15;8.39;83.23
68511;SHT31;55512;50.102;19.958;2024-02-04T17:05:50;8.39;83.38
68511;SHT31;55512;50.102;19.958;2024-02-04T17:08:21;8.39;83.44
68511;SHT31;55512;50.102;19.958;2024-02-04T17:11:24;8.21;83.90
68511;SHT31;55512;50.102;19.958;2024-02-04T17:14:31;8.38;83.47
68511;SHT31;55512;50.102;19.958;2024-02-04T17:17:20;8.42;83.29
68511;SHT31;55512;50.102;19.958;2024-02-04T17:22:43;8.47;82.51
68511;SHT31;55512;50.102;19.958;2024-02-04T17:25:40;8.52;82.12
68511;SHT31;55512;50.102;19.958;2024-02-04T17:28:30;8.55;81.69
68511;SHT31;55512;50.102;19.958;2024-02-04T17:31:31;8.55;81.42
68511;SHT31;55512;50.102;19.958;2024-02-04T17:34:20;8.55;81.08
68511;SHT31;55512;50.102;19.958;2024-02-04T17:37:10;8.57;80.98
68511;SHT31;55512;50.102;19.958;2024-02-04T17:40:02;8.58;80.75
68511;SHT31;55512;50.102;19.958;2024-02-04T17:42:59;8.62;80.43
68511;SHT31;55512;50.102;19.958;2024-02-04T17:45:40;8.71;79.87
68511;SHT31;55512;50.102;19.958;2024-02-04T17:48:08;8.79;79.55
68511;SHT31;55512;50.102;19.958;2024-02-04T17:51:00;8.82;78.93
68511;SHT31;55512;50.102;19.958;2024-02-04T17:53:52;8.92;78.23
68511;SHT31;55512;50.102;19.958;2024-02-04T17:57:01;8.94;77.91
68511;SHT31;55512;50.102;19.958;2024-02-04T18:02:22;8.93;77.93
68511;SHT31;55512;50.102;19.958;2024-02-04T18:04:59;9.08;77.49
68511;SHT31;55512;50.102;19.958;2024-02-04T18:07:33;9.32;76.62
68511;SHT31;55512;50.102;19.958;2024-02-04T18:10:19;9.32;76.66
68511;SHT31;55512;50.102;19.958;2024-02-04T18:12:44;9.31;76.91
68511;SHT31;55512;50.102;19.958;2024-02-04T18:18:26;9.26;76.97
68511;SHT31;55512;50.102;19.958;2024-02-04T18:20:59;9.06;77.67
68511;SHT31;55512;50.102;19.958;2024-02-04T18:24:15;9.23;77.12
68511;SHT31;55512;50.102;19.958;2024-02-04T18:27:18;9.19;77.08
68511;SHT31;55512;50.102;19.958;2024-02-04T18:29:45;9.26;76.87
68511;SHT31;55512;50.102;19.958;2024-02-04T18:32:38;9.24;76.65
68511;SHT31;55512;50.102;19.958;2024-02-04T18:35:21;9.27;76.31
68511;SHT31;55512;50.102;19.958;2024-02-04T18:38:10;9.30;76.04
68511;SHT31;55512;50.102;19.958;2024-02-04T18:40:41;9.34;75.94
68511;SHT31;55512;50.102;19.958;2024-02-04T18:43:31;9.39;75.67
68511;SHT31;55512;50.102;19.958;2024-02-04T18:45:59;9.24;75.96
68511;SHT31;55512;50.102;19.958;2024-02-04T18:48:45;9.14;76.25
68511;SHT31;55512;50.102;19.958;2024-02-04T18:51:23;9.20;75.90
68511;SHT31;55512;50.102;19.958;2024-02-04T18:54:32;9.38;75.22
68511;SHT31;55512;50.102;19.958;2024-02-04T18:57:40;9.27;75.39
68511;SHT31;55512;50.102;19.958;2024-02-04T19:06:45;9.38;74.64
68511;SHT31;55512;50.102;19.958;2024-02-04T19:09:14;9.56;74.06
68511;SHT31;55512;50.102;19.958;2024-02-04T19:11:41;9.66;73.29
68511;SHT31;55512;50.102;19.958;2024-02-04T19:14:12;9.71;73.12
68511;SHT31;55512;50.102;19.958;2024-02-04T19:16:38;9.69;72.95
68511;SHT31;55512;50.102;19.958;2024-02-04T19:19:04;9.67;72.72
68511;SHT31;55512;50.102;19.958;2024-02-04T19:21:30;9.69;72.60
68511;SHT31;55512;50.102;19.958;2024-02-04T19:23:55;9.69;72.45
68511;SHT31;55512;50.102;19.958;2024-02-04T19:26:41;9.67;71.91
68511;SHT31;55512;50.102;19.958;2024-02-04T19:29:07;9.72;71.56
68511;SHT31;55512;50.102;19.958;2024-02-04T19:31:32;9.67;71.44
68511;SHT31;55512;50.102;19.958;2024-02-04T19:33:58;9.46;72.21
68511;SHT31;55512;50.102;19.958;2024-02-04T19:36:24;9.42;72.44
68511;SHT31;55512;50.102;19.958;2024-02-04T19:38:50;9.40;71.60
68511;SHT31;55512;50.102;19.958;2024-02-04T19:41:29;9.41;71.75
68511;SHT31;55512;50.102;19.958;2024-02-04T19:47:56;8.93;75.51
68511;SHT31;55512;50.102;19.958;2024-02-04T19:50:49;8.85;74.88
68511;SHT31;55512;50.102;19.958;2024-02-04T19:53:33;8.83;74.04
68511;SHT31;55512;50.102;19.958;2024-02-04T19:56:20;8.80;73.96
68511;SHT31;55512;50.102;19.958;2024-02-04T20:01:44;8.83;73.23
68511;SHT31;55512;50.102;19.958;2024-02-04T20:11:35;8.91;73.13
68511;SHT31;55512;50.102;19.958;2024-02-04T20:20:53;9.05;71.67
68511;SHT31;55512;50.102;19.958;2024-02-04T20:27:53;9.10;70.91
68511;SHT31;55512;50.102;19.958;2024-02-04T20:31:18;9.10;70.04
68511;SHT31;55512;50.102;19.958;2024-02-04T20:37:18;9.14;68.39
68511;SHT31;55512;50.102;19.958;2024-02-04T20:50:22;8.87;73.25
68511;SHT31;55512;50.102;19.958;2024-02-04T20:53:38;8.20;77.99
68511;SHT31;55512;50.102;19.958;2024-02-04T20:56:07;7.93;78.82
68511;SHT31;55512;50.102;19.958;2024-02-04T20:58:34;7.80;79.17
68511;SHT31;55512;50.102;19.958;2024-02-04T21:01:00;7.81;79.21
68511;SHT31;55512;50.102;19.958;2024-02-04T21:03:26;7.69;79.50
68511;SHT31;55512;50.102;19.958;2024-02-04T21:05:53;7.86;78.78
68511;SHT31;55512;50.102;19.958;2024-02-04T21:08:19;7.99;78.07
68511;SHT31;55512;50.102;19.958;2024-02-04T21:10:44;8.00;77.88
68511;SHT31;55512;50.102;19.958;2024-02-04T21:13:11;8.06;77.61
68511;SHT31;55512;50.102;19.958;2024-02-04T21:15:36;8.07;77.56
68511;SHT31;55512;50.102;19.958;2024-02-04T21:18:02;8.11;77.49
68511;SHT31;55512;50.102;19.958;2024-02-04T21:20:31;8.15;77.18
68511;SHT31;55512;50.102;19.958;2024-02-04T21:22:57;8.18;76.42
68511;SHT31;55512;50.102;19.958;2024-02-04T21:37:05;8.03;74.45
68511;SHT31;55512;50.102;19.958;2024-02-04T21:40:38;8.06;73.67
68511;SHT31;55512;50.102;19.958;2024-02-04T22:01:10;7.96;74.99
68511;SHT31;55512;50.102;19.958;2024-02-04T22:04:24;7.61;76.25
68511;SHT31;55512;50.102;19.958;2024-02-04T22:07:03;7.36;77.66
68511;SHT31;55512;50.102;19.958;2024-02-04T22:09:41;7.12;80.29
68511;SHT31;55512;50.102;19.958;2024-02-04T22:12:12;6.98;80.92
68511;SHT31;55512;50.102;19.958;2024-02-04T22:14:38;6.91;80.43
68511;SHT31;55512;50.102;19.958;2024-02-04T22:17:49;6.90;80.14
68511;SHT31;55512;50.102;19.958;2024-02-04T22:20:11;6.91;79.90
68511;SHT31;55512;50.102;19.958;2024-02-04T22:22:39;6.92;79.76
68511;SHT31;55512;50.102;19.958;2024-02-04T22:25:11;6.92;79.82
68511;SHT31;55512;50.102;19.958;2024-02-04T22:27:37;6.90;80.32
68511;SHT31;55512;50.102;19.958;2024-02-04T22:32:56;6.72;82.53
68511;SHT31;55512;50.102;19.958;2024-02-04T22:38:37;6.51;84.70
68511;SHT31;55512;50.102;19.958;2024-02-04T22:50:58;6.25;86.39
68511;SHT31;55512;50.102;19.958;2024-02-04T22:54:04;6.21;86.95
68511;SHT31;55512;50.102;19.958;2024-02-04T22:56:41;6.16;87.29
68511;SHT31;55512;50.102;19.958;2024-02-04T22:59:07;6.10;87.68
68511;SHT31;55512;50.102;19.958;2024-02-04T23:02:01;6.06;87.79
68511;SHT31;55512;50.102;19.958;2024-02-04T23:05:19;5.99;87.82
68511;SHT31;55512;50.102;19.958;2024-02-04T23:11:02;5.90;88.22
68511;SHT31;55512;50.102;19.958;2024-02-04T23:21:29;5.77;88.55
68511;SHT31;55512;50.102;19.958;2024-02-04T23:32:03;5.97;88.21
68511;SHT31;55512;50.102;19.958;2024-02-04T23:38:27;5.60;89.34
68511;SHT31;55512;50.102;19.958;2024-02-04T23:41:42;5.59;89.75
68511;SHT31;55512;50.102;19.958;2024-02-04T23:51:12;5.77;89.35
68511;SHT31;55512;50.102;19.958;2024-02-04T23:54:29;5.80;89.30
